Correctionville, IA (51016)

7:37 PM CDT on August 28, 2015 (GMT -0500)
morningside | | Change Station
CLOSE
Current Station
Personal Weather Station
Location: Washta, IA
Elevation: 1171 ft
Nearby Weather Stations

Elev 1171 ft 42.57 °N, 95.72 °W | Updated 5 minutes ago

Overcast
Overcast
61.3 °F
Feels Like 61.3 °F
N
4.7
Wind Variable Wind from NNE

Today
High -- | Low -- °F
--% Chance of Precip.
Yesterday
High -- | Low -- °F
Precip. -- in
6:43 AM 8:04 PM
Waxing Gibbous, 99% visible
Pressure 29.94 in
Visibility 2.5 miles
Clouds Overcast 700 ft
Dew Point 60 °F
Humidity 95%
Rainfall 2.33 in
Snow Depth Not available.
UV 0 out of 12
Pollen 4.90 out of 12
Air Quality Not available.
Flu Activity Not available.
METAR KCKP 290015Z AUTO 03008KT 2 1/2SM BR OVC007 16/16 A2994 RMK AO2 LTG DSNT E AND SE T01600160
Pressure 29.94 in
Visibility 2.5 miles
Clouds Overcast 700 ft
Dew Point 60 °F
Humidity 95%
Rainfall 2.33 in
Snow Depth Not available.
UV 0 out of 12
Pollen 4.90 out of 12
Air Quality Not available.
Flu Activity Not available.
METAR KCKP 290015Z AUTO 03008KT 2 1/2SM BR OVC007 16/16 A2994 RMK AO2 LTG DSNT E AND SE T01600160

10-Day Weather Forecast

×

Almanac

Astronomy

Aug. 28, 2015 Rise Set
Actual Time
Civil Twilight
Nautical Twilight
Astronomical Twilight
Moon
Length of Visible Light
Length of Day
Tomorrow will be .
, % of the Moon is Illuminated

Today's Extremes

State Highs State Lows

Community

WunderPhotos

Upload Photos

1,850,548 photos uploaded!

WunderBlogs® & News

Nearby

Air Quality

  Air Quality AQ Index Pollutant
Not available.

Snow Depth

Station Depth Elevation

Earthquake Activity

City Distance Mag. Time & Date
Minimum magnitude displayed is 2.5.

Coastal Water Temperatures

Place Temperature

Stations

Nearby Weather Stations

Station Location Temp. Windchill Dew Point Humidity Wind Precip. Elev Updated Type